sensor_id;sensor_type;location;lat;lon;timestamp;temperature;humidity
64012;DHT22;50211;52.768;12.124;2023-03-26T00:01:46;7.70;99.90
64012;DHT22;50211;52.768;12.124;2023-03-26T00:04:14;7.80;99.90
64012;DHT22;50211;52.768;12.124;2023-03-26T00:06:44;7.80;99.90
64012;DHT22;50211;52.768;12.124;2023-03-26T00:09:14;7.70;99.90
64012;DHT22;50211;52.768;12.124;2023-03-26T00:11:40;7.70;99.90
64012;DHT22;50211;52.768;12.124;2023-03-26T00:14:07;7.70;99.90
64012;DHT22;50211;52.768;12.124;2023-03-26T00:16:33;7.60;99.90
64012;DHT22;50211;52.768;12.124;2023-03-26T00:19:00;7.70;99.90
64012;DHT22;50211;52.768;12.124;2023-03-26T00:21:28;7.60;99.90
64012;DHT22;50211;52.768;12.124;2023-03-26T00:23:55;7.60;99.90
64012;DHT22;50211;52.768;12.124;2023-03-26T00:26:22;7.60;99.90
64012;DHT22;50211;52.768;12.124;2023-03-26T00:28:48;7.60;99.90
64012;DHT22;50211;52.768;12.124;2023-03-26T00:31:15;7.50;99.90
64012;DHT22;50211;52.768;12.124;2023-03-26T00:33:41;7.50;99.90
64012;DHT22;50211;52.768;12.124;2023-03-26T00:36:12;7.50;99.90
64012;DHT22;50211;52.768;12.124;2023-03-26T00:38:43;7.50;99.90
64012;DHT22;50211;52.768;12.124;2023-03-26T00:41:10;7.50;99.90
64012;DHT22;50211;52.768;12.124;2023-03-26T00:43:47;7.60;99.90
64012;DHT22;50211;52.768;12.124;2023-03-26T00:46:12;7.50;99.90
64012;DHT22;50211;52.768;12.124;2023-03-26T00:48:38;7.50;99.90
64012;DHT22;50211;52.768;12.124;2023-03-26T00:51:07;7.50;99.90
64012;DHT22;50211;52.768;12.124;2023-03-26T00:53:33;7.50;99.90
64012;DHT22;50211;52.768;12.124;2023-03-26T00:55:59;7.50;99.90
64012;DHT22;50211;52.768;12.124;2023-03-26T00:58:25;7.50;99.90
64012;DHT22;50211;52.768;12.124;2023-03-26T01:00:54;7.50;99.90
64012;DHT22;50211;52.768;12.124;2023-03-26T01:03:26;7.40;99.90
64012;DHT22;50211;52.768;12.124;2023-03-26T01:05:58;7.50;99.90
64012;DHT22;50211;52.768;12.124;2023-03-26T01:11:06;7.40;99.90
64012;DHT22;50211;52.768;12.124;2023-03-26T01:18:54;7.30;99.90
64012;DHT22;50211;52.768;12.124;2023-03-26T01:21:24;7.30;99.90
64012;DHT22;50211;52.768;12.124;2023-03-26T01:23:59;7.20;99.90
64012;DHT22;50211;52.768;12.124;2023-03-26T01:28:54;7.20;99.90
64012;DHT22;50211;52.768;12.124;2023-03-26T01:31:42;7.20;99.90
64012;DHT22;50211;52.768;12.124;2023-03-26T01:34:23;7.30;99.90
64012;DHT22;50211;52.768;12.124;2023-03-26T01:37:18;7.30;99.90
64012;DHT22;50211;52.768;12.124;2023-03-26T01:39:56;7.30;99.90
64012;DHT22;50211;52.768;12.124;2023-03-26T01:42:36;7.40;99.90
64012;DHT22;50211;52.768;12.124;2023-03-26T01:45:16;7.40;99.90
64012;DHT22;50211;52.768;12.124;2023-03-26T01:47:44;7.30;99.90
64012;DHT22;50211;52.768;12.124;2023-03-26T01:50:10;7.30;99.90
64012;DHT22;50211;52.768;12.124;2023-03-26T01:52:36;7.30;99.90
64012;DHT22;50211;52.768;12.124;2023-03-26T01:55:02;7.30;99.90
64012;DHT22;50211;52.768;12.124;2023-03-26T01:57:41;7.30;99.90
64012;DHT22;50211;52.768;12.124;2023-03-26T02:00:27;7.30;99.90
64012;DHT22;50211;52.768;12.124;2023-03-26T02:03:06;7.20;99.90
64012;DHT22;50211;52.768;12.124;2023-03-26T02:06:04;7.10;99.90
64012;DHT22;50211;52.768;12.124;2023-03-26T02:08:38;7.10;99.90
64012;DHT22;50211;52.768;12.124;2023-03-26T02:11:10;7.10;99.90
64012;DHT22;50211;52.768;12.124;2023-03-26T02:13:38;7.10;99.90
64012;DHT22;50211;52.768;12.124;2023-03-26T02:16:06;7.10;99.90
64012;DHT22;50211;52.768;12.124;2023-03-26T02:18:32;7.20;99.90
64012;DHT22;50211;52.768;12.124;2023-03-26T02:21:13;7.20;99.90
64012;DHT22;50211;52.768;12.124;2023-03-26T02:23:41;7.20;99.90
64012;DHT22;50211;52.768;12.124;2023-03-26T02:26:11;7.20;99.90
64012;DHT22;50211;52.768;12.124;2023-03-26T02:28:37;7.20;99.90
64012;DHT22;50211;52.768;12.124;2023-03-26T02:31:03;7.20;99.90
64012;DHT22;50211;52.768;12.124;2023-03-26T02:33:30;7.10;99.90
64012;DHT22;50211;52.768;12.124;2023-03-26T02:35:57;7.10;99.90
64012;DHT22;50211;52.768;12.124;2023-03-26T02:38:25;7.10;99.90
64012;DHT22;50211;52.768;12.124;2023-03-26T02:40:52;7.10;99.90
64012;DHT22;50211;52.768;12.124;2023-03-26T02:43:18;7.10;99.90
64012;DHT22;50211;52.768;12.124;2023-03-26T02:45:44;7.10;99.90
64012;DHT22;50211;52.768;12.124;2023-03-26T02:48:11;7.20;99.90
64012;DHT22;50211;52.768;12.124;2023-03-26T02:50:36;7.20;99.90
64012;DHT22;50211;52.768;12.124;2023-03-26T02:53:02;7.30;99.90
64012;DHT22;50211;52.768;12.124;2023-03-26T02:55:27;7.20;99.90
64012;DHT22;50211;52.768;12.124;2023-03-26T02:57:53;7.30;99.90
64012;DHT22;50211;52.768;12.124;2023-03-26T03:00:18;7.20;99.90
64012;DHT22;50211;52.768;12.124;2023-03-26T03:02:47;7.30;99.90
64012;DHT22;50211;52.768;12.124;2023-03-26T03:05:13;7.30;99.90
64012;DHT22;50211;52.768;12.124;2023-03-26T03:07:39;7.30;99.90
64012;DHT22;50211;52.768;12.124;2023-03-26T03:10:05;7.30;99.90
64012;DHT22;50211;52.768;12.124;2023-03-26T03:12:33;7.30;99.90
64012;DHT22;50211;52.768;12.124;2023-03-26T03:14:59;7.40;99.90
64012;DHT22;50211;52.768;12.124;2023-03-26T03:17:24;7.40;99.90
64012;DHT22;50211;52.768;12.124;2023-03-26T03:19:51;7.40;99.90
64012;DHT22;50211;52.768;12.124;2023-03-26T03:22:16;7.40;99.90
64012;DHT22;50211;52.768;12.124;2023-03-26T03:24:42;7.30;99.90
64012;DHT22;50211;52.768;12.124;2023-03-26T03:27:08;7.30;99.90
64012;DHT22;50211;52.768;12.124;2023-03-26T03:29:34;7.40;99.90
64012;DHT22;50211;52.768;12.124;2023-03-26T03:32:00;7.40;99.90
64012;DHT22;50211;52.768;12.124;2023-03-26T03:34:26;7.40;99.90
64012;DHT22;50211;52.768;12.124;2023-03-26T03:36:51;7.30;99.90
64012;DHT22;50211;52.768;12.124;2023-03-26T03:39:17;7.30;99.90
64012;DHT22;50211;52.768;12.124;2023-03-26T03:41:42;7.30;99.90
64012;DHT22;50211;52.768;12.124;2023-03-26T03:44:08;7.30;99.90
64012;DHT22;50211;52.768;12.124;2023-03-26T03:46:33;7.30;99.90
64012;DHT22;50211;52.768;12.124;2023-03-26T03:48:59;7.30;99.90
64012;DHT22;50211;52.768;12.124;2023-03-26T03:51:24;7.30;99.90
64012;DHT22;50211;52.768;12.124;2023-03-26T03:53:50;7.30;99.90
64012;DHT22;50211;52.768;12.124;2023-03-26T03:56:17;7.20;99.90
64012;DHT22;50211;52.768;12.124;2023-03-26T03:58:44;7.20;99.90
64012;DHT22;50211;52.768;12.124;2023-03-26T04:01:11;7.30;99.90
64012;DHT22;50211;52.768;12.124;2023-03-26T04:03:38;7.20;99.90
64012;DHT22;50211;52.768;12.124;2023-03-26T04:06:05;7.30;99.90
64012;DHT22;50211;52.768;12.124;2023-03-26T04:08:31;7.30;99.90
64012;DHT22;50211;52.768;12.124;2023-03-26T04:10:57;7.30;99.90
64012;DHT22;50211;52.768;12.124;2023-03-26T04:13:23;7.30;99.90
64012;DHT22;50211;52.768;12.124;2023-03-26T04:15:48;7.20;99.90
64012;DHT22;50211;52.768;12.124;2023-03-26T04:18:14;7.30;99.90
64012;DHT22;50211;52.768;12.124;2023-03-26T04:20:41;7.30;99.90
64012;DHT22;50211;52.768;12.124;2023-03-26T04:23:12;7.30;99.90
64012;DHT22;50211;52.768;12.124;2023-03-26T04:25:42;7.20;99.90
64012;DHT22;50211;52.768;12.124;2023-03-26T04:28:08;7.20;99.90
64012;DHT22;50211;52.768;12.124;2023-03-26T04:30:34;7.20;99.90
64012;DHT22;50211;52.768;12.124;2023-03-26T04:33:03;7.20;99.90
64012;DHT22;50211;52.768;12.124;2023-03-26T04:35:33;7.10;99.90
64012;DHT22;50211;52.768;12.124;2023-03-26T04:38:00;7.10;99.90
64012;DHT22;50211;52.768;12.124;2023-03-26T04:40:26;7.00;99.90
64012;DHT22;50211;52.768;12.124;2023-03-26T04:42:55;7.10;99.90
64012;DHT22;50211;52.768;12.124;2023-03-26T04:45:22;7.10;99.90
64012;DHT22;50211;52.768;12.124;2023-03-26T04:47:48;7.00;99.90
64012;DHT22;50211;52.768;12.124;2023-03-26T04:50:14;7.10;99.90
64012;DHT22;50211;52.768;12.124;2023-03-26T04:52:40;7.10;99.90
64012;DHT22;50211;52.768;12.124;2023-03-26T04:55:18;7.10;99.90
64012;DHT22;50211;52.768;12.124;2023-03-26T04:57:50;7.10;99.90
64012;DHT22;50211;52.768;12.124;2023-03-26T05:00:17;7.10;99.90
64012;DHT22;50211;52.768;12.124;2023-03-26T05:02:45;7.10;99.90
64012;DHT22;50211;52.768;12.124;2023-03-26T05:05:15;7.10;99.90
64012;DHT22;50211;52.768;12.124;2023-03-26T05:07:40;7.10;99.90
64012;DHT22;50211;52.768;12.124;2023-03-26T05:10:06;7.10;99.90
64012;DHT22;50211;52.768;12.124;2023-03-26T05:12:32;7.10;99.90
64012;DHT22;50211;52.768;12.124;2023-03-26T05:14:58;7.10;99.90
64012;DHT22;50211;52.768;12.124;2023-03-26T05:17:23;7.00;99.90
64012;DHT22;50211;52.768;12.124;2023-03-26T05:19:49;7.00;99.90
64012;DHT22;50211;52.768;12.124;2023-03-26T05:22:17;7.00;99.90
64012;DHT22;50211;52.768;12.124;2023-03-26T05:24:42;7.00;99.90
64012;DHT22;50211;52.768;12.124;2023-03-26T05:27:13;7.00;99.90
64012;DHT22;50211;52.768;12.124;2023-03-26T05:29:38;7.00;99.90
64012;DHT22;50211;52.768;12.124;2023-03-26T05:32:04;7.00;99.90
64012;DHT22;50211;52.768;12.124;2023-03-26T05:34:30;6.90;99.90
64012;DHT22;50211;52.768;12.124;2023-03-26T05:36:56;6.90;99.90
64012;DHT22;50211;52.768;12.124;2023-03-26T05:39:22;6.90;99.90
64012;DHT22;50211;52.768;12.124;2023-03-26T05:41:50;6.90;99.90
64012;DHT22;50211;52.768;12.124;2023-03-26T05:44:17;6.90;99.90
64012;DHT22;50211;52.768;12.124;2023-03-26T05:46:43;6.90;99.90
64012;DHT22;50211;52.768;12.124;2023-03-26T05:49:08;6.90;99.90
64012;DHT22;50211;52.768;12.124;2023-03-26T05:51:34;6.90;99.90
64012;DHT22;50211;52.768;12.124;2023-03-26T05:53:59;6.90;99.90
64012;DHT22;50211;52.768;12.124;2023-03-26T05:56:25;7.00;99.90
64012;DHT22;50211;52.768;12.124;2023-03-26T05:58:50;6.90;99.90
64012;DHT22;50211;52.768;12.124;2023-03-26T06:01:16;7.00;99.90
64012;DHT22;50211;52.768;12.124;2023-03-26T06:03:43;7.00;99.90
64012;DHT22;50211;52.768;12.124;2023-03-26T06:06:15;7.00;99.90
64012;DHT22;50211;52.768;12.124;2023-03-26T06:08:51;7.00;99.90
64012;DHT22;50211;52.768;12.124;2023-03-26T06:11:18;7.10;99.90
64012;DHT22;50211;52.768;12.124;2023-03-26T06:13:45;7.10;99.90
64012;DHT22;50211;52.768;12.124;2023-03-26T06:16:12;7.20;99.90
64012;DHT22;50211;52.768;12.124;2023-03-26T06:18:37;7.10;99.90
64012;DHT22;50211;52.768;12.124;2023-03-26T06:21:04;7.10;99.90
64012;DHT22;50211;52.768;12.124;2023-03-26T06:23:31;7.00;99.90
64012;DHT22;50211;52.768;12.124;2023-03-26T06:25:56;7.00;99.90
64012;DHT22;50211;52.768;12.124;2023-03-26T06:28:22;7.00;99.90
64012;DHT22;50211;52.768;12.124;2023-03-26T06:30:49;7.00;99.90
64012;DHT22;50211;52.768;12.124;2023-03-26T06:33:14;7.00;99.90
64012;DHT22;50211;52.768;12.124;2023-03-26T06:35:40;7.00;99.90
64012;DHT22;50211;52.768;12.124;2023-03-26T06:38:07;6.90;99.90
64012;DHT22;50211;52.768;12.124;2023-03-26T06:40:32;7.00;99.90
64012;DHT22;50211;52.768;12.124;2023-03-26T06:42:58;7.00;99.90
64012;DHT22;50211;52.768;12.124;2023-03-26T06:45:25;7.10;99.90
64012;DHT22;50211;52.768;12.124;2023-03-26T06:47:51;7.00;99.90
64012;DHT22;50211;52.768;12.124;2023-03-26T06:50:17;7.00;99.90
64012;DHT22;50211;52.768;12.124;2023-03-26T06:52:42;7.10;99.90
64012;DHT22;50211;52.768;12.124;2023-03-26T06:55:08;7.10;99.90
64012;DHT22;50211;52.768;12.124;2023-03-26T06:57:35;7.10;99.90
64012;DHT22;50211;52.768;12.124;2023-03-26T07:00:00;7.10;99.90
64012;DHT22;50211;52.768;12.124;2023-03-26T07:02:26;7.20;99.90
64012;DHT22;50211;52.768;12.124;2023-03-26T07:04:51;7.20;99.90
64012;DHT22;50211;52.768;12.124;2023-03-26T07:07:18;7.30;99.90
64012;DHT22;50211;52.768;12.124;2023-03-26T07:09:46;7.40;99.90
64012;DHT22;50211;52.768;12.124;2023-03-26T07:12:12;7.40;99.90
64012;DHT22;50211;52.768;12.124;2023-03-26T07:14:38;7.40;99.90
64012;DHT22;50211;52.768;12.124;2023-03-26T07:17:03;7.40;99.90
64012;DHT22;50211;52.768;12.124;2023-03-26T07:19:29;7.30;99.90
64012;DHT22;50211;52.768;12.124;2023-03-26T07:21:55;7.30;99.90
64012;DHT22;50211;52.768;12.124;2023-03-26T07:24:20;7.30;99.90
64012;DHT22;50211;52.768;12.124;2023-03-26T07:29:36;7.30;99.90
64012;DHT22;50211;52.768;12.124;2023-03-26T07:32:14;7.30;99.90
64012;DHT22;50211;52.768;12.124;2023-03-26T07:37:21;7.30;99.90
64012;DHT22;50211;52.768;12.124;2023-03-26T07:45:20;7.20;99.90
64012;DHT22;50211;52.768;12.124;2023-03-26T07:47:48;7.30;99.90
64012;DHT22;50211;52.768;12.124;2023-03-26T07:50:19;7.30;99.90
64012;DHT22;50211;52.768;12.124;2023-03-26T07:52:45;7.30;99.90
64012;DHT22;50211;52.768;12.124;2023-03-26T07:55:12;7.30;99.90
64012;DHT22;50211;52.768;12.124;2023-03-26T08:00:11;7.30;99.90
64012;DHT22;50211;52.768;12.124;2023-03-26T08:02:47;7.40;99.90
64012;DHT22;50211;52.768;12.124;2023-03-26T08:05:26;7.40;99.90
64012;DHT22;50211;52.768;12.124;2023-03-26T08:11:06;7.50;99.90
64012;DHT22;50211;52.768;12.124;2023-03-26T08:16:52;7.50;99.90
64012;DHT22;50211;52.768;12.124;2023-03-26T08:25:24;7.50;99.90
64012;DHT22;50211;52.768;12.124;2023-03-26T08:28:26;7.50;99.90
64012;DHT22;50211;52.768;12.124;2023-03-26T08:30:56;7.40;99.90
64012;DHT22;50211;52.768;12.124;2023-03-26T08:33:24;7.40;99.90
64012;DHT22;50211;52.768;12.124;2023-03-26T08:35:50;7.40;99.90
64012;DHT22;50211;52.768;12.124;2023-03-26T08:38:17;7.40;99.90
64012;DHT22;50211;52.768;12.124;2023-03-26T08:43:59;7.40;99.90
64012;DHT22;50211;52.768;12.124;2023-03-26T08:52:11;7.60;99.90
64012;DHT22;50211;52.768;12.124;2023-03-26T08:58:02;7.90;99.90
64012;DHT22;50211;52.768;12.124;2023-03-26T09:03:34;8.10;99.90
64012;DHT22;50211;52.768;12.124;2023-03-26T09:09:22;8.20;99.90
64012;DHT22;50211;52.768;12.124;2023-03-26T09:12:20;8.30;99.90
64012;DHT22;50211;52.768;12.124;2023-03-26T09:17:59;8.60;99.90
64012;DHT22;50211;52.768;12.124;2023-03-26T09:23:37;9.00;99.90
64012;DHT22;50211;52.768;12.124;2023-03-26T09:26:25;9.20;99.90
64012;DHT22;50211;52.768;12.124;2023-03-26T09:38:14;9.10;99.90
64012;DHT22;50211;52.768;12.124;2023-03-26T09:40:37;9.00;99.90
64012;DHT22;50211;52.768;12.124;2023-03-26T09:51:33;8.70;99.90
64012;DHT22;50211;52.768;12.124;2023-03-26T09:54:31;8.80;99.90
64012;DHT22;50211;52.768;12.124;2023-03-26T10:00:01;9.20;99.90
64012;DHT22;50211;52.768;12.124;2023-03-26T10:07:56;9.10;99.90
64012;DHT22;50211;52.768;12.124;2023-03-26T10:10:54;9.10;99.90
64012;DHT22;50211;52.768;12.124;2023-03-26T10:13:33;9.20;99.90
64012;DHT22;50211;52.768;12.124;2023-03-26T10:16:23;9.30;99.90
64012;DHT22;50211;52.768;12.124;2023-03-26T10:19:08;9.40;99.90
64012;DHT22;50211;52.768;12.124;2023-03-26T10:21:46;9.20;99.90
64012;DHT22;50211;52.768;12.124;2023-03-26T10:24:44;9.30;99.90
64012;DHT22;50211;52.768;12.124;2023-03-26T10:27:22;9.30;99.90
64012;DHT22;50211;52.768;12.124;2023-03-26T10:38:17;9.70;99.90
64012;DHT22;50211;52.768;12.124;2023-03-26T10:41:07;9.70;99.90
64012;DHT22;50211;52.768;12.124;2023-03-26T10:47:09;9.70;99.90
64012;DHT22;50211;52.768;12.124;2023-03-26T10:52:40;9.90;99.90
64012;DHT22;50211;52.768;12.124;2023-03-26T10:55:09;9.90;99.90
64012;DHT22;50211;52.768;12.124;2023-03-26T10:58:04;10.00;99.90
64012;DHT22;50211;52.768;12.124;2023-03-26T11:00:27;10.00;99.90
64012;DHT22;50211;52.768;12.124;2023-03-26T11:05:29;10.20;99.90
64012;DHT22;50211;52.768;12.124;2023-03-26T11:08:11;10.50;99.90
64012;DHT22;50211;52.768;12.124;2023-03-26T11:10:55;10.80;99.90
64012;DHT22;50211;52.768;12.124;2023-03-26T11:16:05;10.50;99.90
64012;DHT22;50211;52.768;12.124;2023-03-26T11:18:58;10.50;99.90
64012;DHT22;50211;52.768;12.124;2023-03-26T11:27:06;9.70;99.90
64012;DHT22;50211;52.768;12.124;2023-03-26T11:32:43;9.60;99.90
64012;DHT22;50211;52.768;12.124;2023-03-26T11:35:28;9.60;99.90
64012;DHT22;50211;52.768;12.124;2023-03-26T11:38:01;9.50;99.90
64012;DHT22;50211;52.768;12.124;2023-03-26T11:40:37;9.40;99.90
64012;DHT22;50211;52.768;12.124;2023-03-26T11:43:07;9.60;99.90
64012;DHT22;50211;52.768;12.124;2023-03-26T11:45:41;9.80;99.90
64012;DHT22;50211;52.768;12.124;2023-03-26T11:48:13;10.10;99.90
64012;DHT22;50211;52.768;12.124;2023-03-26T11:50:49;10.30;99.90
64012;DHT22;50211;52.768;12.124;2023-03-26T11:53:18;10.50;99.90
64012;DHT22;50211;52.768;12.124;2023-03-26T11:56:30;10.60;99.90
64012;DHT22;50211;52.768;12.124;2023-03-26T11:58:57;10.80;99.90
64012;DHT22;50211;52.768;12.124;2023-03-26T12:01:41;10.90;99.90
64012;DHT22;50211;52.768;12.124;2023-03-26T12:04:13;11.30;99.90
64012;DHT22;50211;52.768;12.124;2023-03-26T12:06:56;11.80;99.90
64012;DHT22;50211;52.768;12.124;2023-03-26T12:09:22;12.10;99.90
64012;DHT22;50211;52.768;12.124;2023-03-26T12:11:52;12.00;99.90
64012;DHT22;50211;52.768;12.124;2023-03-26T12:14:20;11.90;99.90
64012;DHT22;50211;52.768;12.124;2023-03-26T12:17:02;11.80;99.90
64012;DHT22;50211;52.768;12.124;2023-03-26T12:19:38;11.60;99.90
64012;DHT22;50211;52.768;12.124;2023-03-26T12:22:04;11.60;99.90
64012;DHT22;50211;52.768;12.124;2023-03-26T12:24:33;11.70;99.90
64012;DHT22;50211;52.768;12.124;2023-03-26T12:29:50;11.30;99.90
64012;DHT22;50211;52.768;12.124;2023-03-26T12:32:15;11.10;99.90
64012;DHT22;50211;52.768;12.124;2023-03-26T12:34:41;11.10;99.90
64012;DHT22;50211;52.768;12.124;2023-03-26T12:37:32;10.80;99.90
64012;DHT22;50211;52.768;12.124;2023-03-26T12:40:25;10.80;99.90
64012;DHT22;50211;52.768;12.124;2023-03-26T12:42:54;11.90;99.90
64012;DHT22;50211;52.768;12.124;2023-03-26T12:45:29;11.60;99.90
64012;DHT22;50211;52.768;12.124;2023-03-26T12:47:56;11.90;99.90
64012;DHT22;50211;52.768;12.124;2023-03-26T12:50:28;11.90;99.90
64012;DHT22;50211;52.768;12.124;2023-03-26T12:56:18;12.10;99.90
64012;DHT22;50211;52.768;12.124;2023-03-26T12:58:57;12.00;99.90
64012;DHT22;50211;52.768;12.124;2023-03-26T13:06:47;11.00;99.90
64012;DHT22;50211;52.768;12.124;2023-03-26T13:09:39;10.60;99.90
64012;DHT22;50211;52.768;12.124;2023-03-26T13:17:47;10.10;99.90
64012;DHT22;50211;52.768;12.124;2023-03-26T13:23:06;9.90;99.90
64012;DHT22;50211;52.768;12.124;2023-03-26T13:25:53;9.90;99.90
64012;DHT22;50211;52.768;12.124;2023-03-26T13:28:31;9.80;99.90
64012;DHT22;50211;52.768;12.124;2023-03-26T13:31:21;9.70;99.90
64012;DHT22;50211;52.768;12.124;2023-03-26T13:34:08;9.80;99.90
64012;DHT22;50211;52.768;12.124;2023-03-26T13:36:56;9.80;99.90
64012;DHT22;50211;52.768;12.124;2023-03-26T13:39:31;10.00;99.90
64012;DHT22;50211;52.768;12.124;2023-03-26T13:42:17;10.20;99.90
64012;DHT22;50211;52.768;12.124;2023-03-26T13:45:02;10.10;99.90
64012;DHT22;50211;52.768;12.124;2023-03-26T13:47:35;10.00;99.90
64012;DHT22;50211;52.768;12.124;2023-03-26T13:50:26;9.80;99.90
64012;DHT22;50211;52.768;12.124;2023-03-26T13:53:15;9.80;99.90
64012;DHT22;50211;52.768;12.124;2023-03-26T13:55:57;9.80;99.90
64012;DHT22;50211;52.768;12.124;2023-03-26T13:58:37;9.80;99.90
64012;DHT22;50211;52.768;12.124;2023-03-26T14:01:08;9.60;99.90
64012;DHT22;50211;52.768;12.124;2023-03-26T14:12:09;9.90;99.90
64012;DHT22;50211;52.768;12.124;2023-03-26T14:17:20;10.50;99.90
64012;DHT22;50211;52.768;12.124;2023-03-26T14:25:28;10.90;99.90
64012;DHT22;50211;52.768;12.124;2023-03-26T14:35:35;10.30;99.90
64012;DHT22;50211;52.768;12.124;2023-03-26T14:41:51;10.10;99.90
64012;DHT22;50211;52.768;12.124;2023-03-26T14:47:20;10.50;99.90
64012;DHT22;50211;52.768;12.124;2023-03-26T14:52:46;10.70;99.90
64012;DHT22;50211;52.768;12.124;2023-03-26T15:12:05;11.30;99.90
64012;DHT22;50211;52.768;12.124;2023-03-26T15:20:19;10.80;99.90
64012;DHT22;50211;52.768;12.124;2023-03-26T15:23:10;10.80;99.90
64012;DHT22;50211;52.768;12.124;2023-03-26T15:26:06;11.10;99.90
64012;DHT22;50211;52.768;12.124;2023-03-26T15:29:02;11.20;99.90
64012;DHT22;50211;52.768;12.124;2023-03-26T15:51:36;11.30;99.90
64012;DHT22;50211;52.768;12.124;2023-03-26T15:54:31;11.40;99.90
64012;DHT22;50211;52.768;12.124;2023-03-26T15:57:23;11.50;99.90
64012;DHT22;50211;52.768;12.124;2023-03-26T16:06:01;11.80;99.90
64012;DHT22;50211;52.768;12.124;2023-03-26T16:08:49;11.90;99.90
64012;DHT22;50211;52.768;12.124;2023-03-26T16:11:56;11.90;99.90
64012;DHT22;50211;52.768;12.124;2023-03-26T16:17:02;11.70;99.90
64012;DHT22;50211;52.768;12.124;2023-03-26T16:19:55;11.40;99.90
64012;DHT22;50211;52.768;12.124;2023-03-26T16:27:43;11.10;99.90
64012;DHT22;50211;52.768;12.124;2023-03-26T16:30:13;11.10;99.90
64012;DHT22;50211;52.768;12.124;2023-03-26T16:32:43;10.90;99.90
64012;DHT22;50211;52.768;12.124;2023-03-26T16:37:38;10.80;99.90
64012;DHT22;50211;52.768;12.124;2023-03-26T16:48:18;10.10;99.90
64012;DHT22;50211;52.768;12.124;2023-03-26T16:53:41;9.90;99.90
64012;DHT22;50211;52.768;12.124;2023-03-26T16:56:29;9.70;99.90
64012;DHT22;50211;52.768;12.124;2023-03-26T16:59:14;9.50;99.90
64012;DHT22;50211;52.768;12.124;2023-03-26T17:04:52;9.30;99.90
64012;DHT22;50211;52.768;12.124;2023-03-26T17:07:29;9.20;99.90
64012;DHT22;50211;52.768;12.124;2023-03-26T17:10:13;9.10;99.90
64012;DHT22;50211;52.768;12.124;2023-03-26T17:18:09;8.80;99.90
64012;DHT22;50211;52.768;12.124;2023-03-26T17:20:52;8.70;99.90
64012;DHT22;50211;52.768;12.124;2023-03-26T17:32:09;8.30;99.90
64012;DHT22;50211;52.768;12.124;2023-03-26T17:42:27;8.10;99.90
64012;DHT22;50211;52.768;12.124;2023-03-26T17:50:24;7.70;99.90
64012;DHT22;50211;52.768;12.124;2023-03-26T17:53:00;7.60;99.90
64012;DHT22;50211;52.768;12.124;2023-03-26T17:55:29;7.50;99.90
64012;DHT22;50211;52.768;12.124;2023-03-26T17:58:03;7.50;99.90
64012;DHT22;50211;52.768;12.124;2023-03-26T18:00:41;7.50;99.90
64012;DHT22;50211;52.768;12.124;2023-03-26T18:03:16;7.40;99.90
64012;DHT22;50211;52.768;12.124;2023-03-26T18:05:44;7.30;99.90
64012;DHT22;50211;52.768;12.124;2023-03-26T18:08:29;7.20;99.90
64012;DHT22;50211;52.768;12.124;2023-03-26T18:11:15;7.10;99.90
64012;DHT22;50211;52.768;12.124;2023-03-26T18:14:04;6.90;99.90
64012;DHT22;50211;52.768;12.124;2023-03-26T18:16:52;6.80;99.90
64012;DHT22;50211;52.768;12.124;2023-03-26T18:19:21;6.80;99.90
64012;DHT22;50211;52.768;12.124;2023-03-26T18:21:52;6.90;99.90
64012;DHT22;50211;52.768;12.124;2023-03-26T18:24:29;6.90;99.90
64012;DHT22;50211;52.768;12.124;2023-03-26T18:27:00;6.90;99.90
64012;DHT22;50211;52.768;12.124;2023-03-26T18:29:28;6.80;99.90
64012;DHT22;50211;52.768;12.124;2023-03-26T18:31:59;6.80;99.90
64012;DHT22;50211;52.768;12.124;2023-03-26T18:34:29;6.70;99.90
64012;DHT22;50211;52.768;12.124;2023-03-26T18:39:36;6.80;99.90
64012;DHT22;50211;52.768;12.124;2023-03-26T18:42:01;6.80;99.90
64012;DHT22;50211;52.768;12.124;2023-03-26T18:44:27;6.80;99.90
64012;DHT22;50211;52.768;12.124;2023-03-26T18:46:53;6.70;99.90
64012;DHT22;50211;52.768;12.124;2023-03-26T18:49:19;6.60;99.90
64012;DHT22;50211;52.768;12.124;2023-03-26T18:51:45;6.50;99.90
64012;DHT22;50211;52.768;12.124;2023-03-26T18:54:18;6.40;99.90
64012;DHT22;50211;52.768;12.124;2023-03-26T18:56:46;6.50;99.90
64012;DHT22;50211;52.768;12.124;2023-03-26T18:59:29;6.30;99.90
64012;DHT22;50211;52.768;12.124;2023-03-26T19:02:02;6.20;99.90
64012;DHT22;50211;52.768;12.124;2023-03-26T19:04:30;6.30;99.90
64012;DHT22;50211;52.768;12.124;2023-03-26T19:06:58;6.20;99.90
64012;DHT22;50211;52.768;12.124;2023-03-26T19:09:25;6.20;99.90
64012;DHT22;50211;52.768;12.124;2023-03-26T19:11:56;6.20;99.90
64012;DHT22;50211;52.768;12.124;2023-03-26T19:14:23;6.20;99.90
64012;DHT22;50211;52.768;12.124;2023-03-26T19:16:54;6.20;99.90
64012;DHT22;50211;52.768;12.124;2023-03-26T19:19:22;6.00;99.90
64012;DHT22;50211;52.768;12.124;2023-03-26T19:21:50;6.00;99.90
64012;DHT22;50211;52.768;12.124;2023-03-26T19:24:18;5.80;99.90
64012;DHT22;50211;52.768;12.124;2023-03-26T19:26:44;5.90;99.90
64012;DHT22;50211;52.768;12.124;2023-03-26T19:29:18;5.90;99.90
64012;DHT22;50211;52.768;12.124;2023-03-26T19:31:49;6.00;99.90
64012;DHT22;50211;52.768;12.124;2023-03-26T19:34:38;6.10;99.90
64012;DHT22;50211;52.768;12.124;2023-03-26T19:37:20;6.10;99.90
64012;DHT22;50211;52.768;12.124;2023-03-26T19:39:51;6.00;99.90
64012;DHT22;50211;52.768;12.124;2023-03-26T19:42:26;6.00;99.90
64012;DHT22;50211;52.768;12.124;2023-03-26T19:44:52;6.00;99.90
64012;DHT22;50211;52.768;12.124;2023-03-26T19:47:24;6.00;99.90
64012;DHT22;50211;52.768;12.124;2023-03-26T19:49:58;5.90;99.90
64012;DHT22;50211;52.768;12.124;2023-03-26T19:52:29;5.90;99.90
64012;DHT22;50211;52.768;12.124;2023-03-26T19:55:22;5.90;99.90
64012;DHT22;50211;52.768;12.124;2023-03-26T19:57:48;5.80;99.90
64012;DHT22;50211;52.768;12.124;2023-03-26T20:00:14;5.80;99.90
64012;DHT22;50211;52.768;12.124;2023-03-26T20:02:41;5.80;99.90
64012;DHT22;50211;52.768;12.124;2023-03-26T20:05:21;5.80;99.90
64012;DHT22;50211;52.768;12.124;2023-03-26T20:07:48;5.80;99.90
64012;DHT22;50211;52.768;12.124;2023-03-26T20:10:14;5.70;99.90
64012;DHT22;50211;52.768;12.124;2023-03-26T20:12:40;5.70;99.90
64012;DHT22;50211;52.768;12.124;2023-03-26T20:15:22;5.60;99.90
64012;DHT22;50211;52.768;12.124;2023-03-26T20:17:48;5.70;99.90
64012;DHT22;50211;52.768;12.124;2023-03-26T20:20:16;5.70;99.90
64012;DHT22;50211;52.768;12.124;2023-03-26T20:22:43;5.60;99.90
64012;DHT22;50211;52.768;12.124;2023-03-26T20:25:18;5.70;99.90
64012;DHT22;50211;52.768;12.124;2023-03-26T20:27:44;5.60;99.90
64012;DHT22;50211;52.768;12.124;2023-03-26T20:30:14;5.70;99.90